createdAt,value
2024-03-09T00:18:18.420Z,227
2024-03-09T00:38:16.489Z,231
2024-03-09T01:18:16.589Z,232
2024-03-09T01:38:16.555Z,228
2024-03-09T01:58:16.407Z,232
2024-03-09T02:18:16.651Z,229
2024-03-09T02:38:16.675Z,234
2024-03-09T02:58:16.749Z,233
2024-03-09T03:18:16.785Z,236
2024-03-09T03:38:16.849Z,235
2024-03-09T03:58:16.870Z,236
2024-03-09T04:18:16.916Z,233
2024-03-09T04:38:17.031Z,241
2024-03-09T04:58:16.988Z,237
2024-03-09T05:18:17.064Z,237
2024-03-09T05:38:17.165Z,234
2024-03-09T05:58:17.075Z,240
2024-03-09T06:18:17.092Z,238
2024-03-09T06:38:17.358Z,238
2024-03-09T06:58:17.284Z,240
2024-03-09T07:18:17.271Z,235
2024-03-09T07:38:17.328Z,236
2024-03-09T07:58:22.022Z,230
2024-03-09T08:18:17.357Z,242
2024-03-09T08:38:17.427Z,237
2024-03-09T08:58:17.365Z,233
2024-03-09T09:18:17.426Z,235
2024-03-09T09:38:17.500Z,233
2024-03-09T09:58:17.515Z,231
2024-03-09T10:18:17.519Z,229
2024-03-09T10:38:17.535Z,224
2024-03-09T10:58:17.507Z,229
2024-03-09T11:18:17.572Z,223
2024-03-09T11:38:17.594Z,225
2024-03-09T11:58:17.565Z,221
2024-03-09T12:18:17.587Z,218
2024-03-09T12:38:17.618Z,216
2024-03-09T12:58:17.609Z,218
2024-03-09T13:18:17.653Z,213
2024-03-09T13:38:17.681Z,218
2024-03-09T13:58:17.693Z,214
2024-03-09T14:18:17.730Z,216
2024-03-09T14:38:17.731Z,216
2024-03-09T14:58:18.000Z,216
2024-03-09T15:18:17.751Z,222
2024-03-09T15:38:17.792Z,220
2024-03-09T15:58:17.792Z,224
2024-03-09T16:18:17.875Z,216
2024-03-09T16:38:17.830Z,218
2024-03-09T16:58:17.900Z,212
2024-03-09T17:18:17.901Z,217
2024-03-09T17:38:17.900Z,224
2024-03-09T17:58:17.906Z,220
2024-03-09T18:18:18.005Z,221
2024-03-09T18:38:17.955Z,221
2024-03-09T18:58:17.986Z,221
2024-03-09T19:18:18.117Z,222
2024-03-09T19:38:18.076Z,223
2024-03-09T19:58:18.031Z,226
2024-03-09T20:18:18.097Z,227
2024-03-09T20:38:18.115Z,227
2024-03-09T20:58:18.099Z,228
2024-03-09T21:18:18.380Z,229
2024-03-09T21:38:18.224Z,228
2024-03-09T21:58:18.190Z,224
2024-03-09T22:38:18.274Z,229
2024-03-09T22:58:18.263Z,230
2024-03-09T23:18:18.425Z,228
2024-03-09T23:38:18.368Z,228
2024-03-09T23:58:18.360Z,228
